createdAt,value
2019-06-08T00:04:03.704Z,17.88
2019-06-08T00:09:05.725Z,17.88
2019-06-08T00:14:07.731Z,18.00
2019-06-08T00:19:09.612Z,17.88
2019-06-08T00:24:11.507Z,18.00
2019-06-08T00:29:14.151Z,17.93
2019-06-08T00:34:16.602Z,17.77
2019-06-08T00:39:18.884Z,17.61
2019-06-08T00:44:21.281Z,17.77
2019-06-08T00:49:23.126Z,17.65
2019-06-08T00:54:25.795Z,17.59
2019-06-08T00:59:27.837Z,17.63
2019-06-08T01:04:29.661Z,17.64
2019-06-08T01:09:31.732Z,17.81
2019-06-08T01:14:33.690Z,17.61
2019-06-08T01:19:35.619Z,17.46
2019-06-08T01:24:37.464Z,17.49
2019-06-08T01:29:39.313Z,17.22
2019-06-08T01:34:41.241Z,16.99
2019-06-08T01:39:43.198Z,17.04
2019-06-08T01:44:45.112Z,17.08
2019-06-08T01:49:46.943Z,17.09
2019-06-08T01:54:48.790Z,16.90
2019-06-08T01:59:50.663Z,17.04
2019-06-08T02:04:52.521Z,16.91
2019-06-08T02:09:54.320Z,17.01
2019-06-08T02:14:56.219Z,16.95
2019-06-08T02:19:58.016Z,16.83
2019-06-08T02:24:59.890Z,16.73
2019-06-08T02:30:02.144Z,16.69
2019-06-08T02:35:06.160Z,16.77
2019-06-08T02:40:08.887Z,16.59
2019-06-08T02:45:10.812Z,16.55
2019-06-08T02:50:13.143Z,16.48
2019-06-08T02:55:15.294Z,16.41
2019-06-08T03:00:17.462Z,16.61
2019-06-08T03:05:19.463Z,16.51
2019-06-08T03:10:21.295Z,16.35
2019-06-08T03:15:31.616Z,16.20
2019-06-08T03:20:33.548Z,16.07
2019-06-08T03:25:45.894Z,16.05
2019-06-08T03:30:51.444Z,16.17
2019-06-08T03:35:55.413Z,16.17
2019-06-08T03:40:47.747Z,16.22
2019-06-08T03:45:49.584Z,16.33
2019-06-08T03:50:51.394Z,16.23
2019-06-08T03:55:53.246Z,16.39
2019-06-08T04:00:55.160Z,16.57
2019-06-08T04:05:57.059Z,16.72
2019-06-08T04:10:58.886Z,16.92
2019-06-08T04:16:00.784Z,17.02
2019-06-08T04:21:02.685Z,16.93
2019-06-08T04:26:04.511Z,17.02
2019-06-08T04:31:06.346Z,17.23
2019-06-08T04:36:08.226Z,17.39
2019-06-08T04:41:10.008Z,17.44
2019-06-08T04:46:11.912Z,17.63
2019-06-08T04:51:13.792Z,17.70
2019-06-08T04:56:15.648Z,17.80
2019-06-08T05:01:17.429Z,18.07
2019-06-08T05:06:19.340Z,18.26
2019-06-08T05:11:21.155Z,18.55
2019-06-08T05:16:23.109Z,18.74
2019-06-08T05:21:25.016Z,18.97
2019-06-08T05:26:28.205Z,19.17
2019-06-08T05:31:30.070Z,19.48
2019-06-08T05:36:34.134Z,19.82
2019-06-08T05:41:36.045Z,20.07
2019-06-08T05:46:37.995Z,20.32
2019-06-08T05:51:41.751Z,20.64
2019-06-08T05:56:43.911Z,20.91
2019-06-08T06:01:48.553Z,21.30
2019-06-08T06:06:50.997Z,21.57
2019-06-08T06:11:54.764Z,21.84
2019-06-08T06:16:56.857Z,22.08
2019-06-08T06:21:58.811Z,22.46
2019-06-08T06:27:00.772Z,22.68
2019-06-08T06:32:03.083Z,22.81
2019-06-08T06:37:05.071Z,22.95
2019-06-08T06:42:07.011Z,23.35
2019-06-08T06:47:08.890Z,23.78
2019-06-08T06:52:10.761Z,24.14
2019-06-08T06:57:12.629Z,24.52
2019-06-08T07:02:14.712Z,25.00
2019-06-08T07:07:16.619Z,25.37
2019-06-08T07:12:18.500Z,25.53
2019-06-08T07:17:20.423Z,25.93
2019-06-08T07:22:22.330Z,26.39
2019-06-08T07:27:25.327Z,26.49
2019-06-08T07:32:27.178Z,26.91
2019-06-08T07:37:29.162Z,26.96
2019-06-08T07:42:30.966Z,27.25
2019-06-08T07:47:33.772Z,26.90
2019-06-08T07:52:35.711Z,26.92
2019-06-08T07:57:37.626Z,26.95
2019-06-08T08:02:39.468Z,27.10
2019-06-08T08:07:41.327Z,27.41
2019-06-08T08:12:43.214Z,27.46
2019-06-08T08:17:45.168Z,27.91
2019-06-08T08:22:49.287Z,28.53
2019-06-08T08:27:51.905Z,28.94
2019-06-08T08:32:55.145Z,29.06
2019-06-08T08:38:02.346Z,29.21
2019-06-08T08:43:01.925Z,29.51
2019-06-08T08:48:20.393Z,29.36
2019-06-08T08:53:08.733Z,29.13
2019-06-08T08:58:10.404Z,29.34
2019-06-08T09:03:27.806Z,29.36
2019-06-08T09:08:18.096Z,29.49
2019-06-08T09:13:19.777Z,29.76
2019-06-08T09:18:21.802Z,29.97
2019-06-08T09:23:23.649Z,30.24
2019-06-08T09:28:25.596Z,30.71
2019-06-08T09:33:28.809Z,30.99
2019-06-08T09:38:30.879Z,31.00
2019-06-08T09:43:32.774Z,31.13
2019-06-08T09:48:34.789Z,31.20
2019-06-08T09:53:41.464Z,31.40
2019-06-08T09:58:41.451Z,31.48
2019-06-08T10:03:43.216Z,31.38
2019-06-08T10:08:48.066Z,31.31
2019-06-08T10:13:49.950Z,31.18
2019-06-08T10:18:54.863Z,31.38
2019-06-08T10:24:00.584Z,30.98
2019-06-08T10:29:03.666Z,30.29
2019-06-08T10:34:10.682Z,30.12
2019-06-08T10:39:11.313Z,30.55
2019-06-08T10:44:14.414Z,30.61
2019-06-08T10:49:18.923Z,30.51
2019-06-08T10:54:21.508Z,30.42
2019-06-08T10:59:23.554Z,30.73
2019-06-08T11:04:25.721Z,31.02
2019-06-08T11:09:28.594Z,30.78
2019-06-08T11:14:30.934Z,30.94
2019-06-08T11:19:37.521Z,31.17
2019-06-08T11:24:40.383Z,31.50
2019-06-08T11:29:42.765Z,31.75
2019-06-08T11:34:44.706Z,31.76
2019-06-08T11:39:49.065Z,31.55
2019-06-08T11:44:53.195Z,31.55
2019-06-08T11:49:57.526Z,31.15
2019-06-08T11:55:00.713Z,30.78
2019-06-08T12:00:21.874Z,30.44
2019-06-08T12:05:14.317Z,30.22
2019-06-08T12:10:17.774Z,30.23
2019-06-08T12:15:21.217Z,30.16
2019-06-08T12:20:24.414Z,30.20
2019-06-08T12:25:26.560Z,30.03
2019-06-08T12:30:29.691Z,30.12
2019-06-08T12:35:31.890Z,30.18
2019-06-08T12:40:34.033Z,30.66
2019-06-08T12:45:38.121Z,30.67
2019-06-08T12:50:39.901Z,30.60
2019-06-08T12:55:41.763Z,30.43
2019-06-08T13:00:48.075Z,30.72
2019-06-08T13:05:51.208Z,30.77
2019-06-08T13:10:53.426Z,30.69
2019-06-08T13:15:57.912Z,30.62
2019-06-08T13:21:15.280Z,30.79
2019-06-08T13:26:03.718Z,30.50
2019-06-08T13:31:07.911Z,30.32
2019-06-08T13:36:10.343Z,30.28
2019-06-08T13:41:12.934Z,30.26
2019-06-08T13:46:15.990Z,30.06
2019-06-08T13:51:21.008Z,30.08
2019-06-08T13:56:24.075Z,29.97
2019-06-08T14:01:30.401Z,30.04
2019-06-08T14:06:30.307Z,29.97
2019-06-08T14:11:32.374Z,29.74
2019-06-08T14:16:34.350Z,29.72
2019-06-08T14:21:41.595Z,29.56
2019-06-08T14:26:40.274Z,29.47
2019-06-08T14:31:42.140Z,29.52
2019-06-08T14:36:43.782Z,29.45
2019-06-08T14:41:49.215Z,29.30
2019-06-08T14:46:49.377Z,29.26
2019-06-08T14:51:52.011Z,29.04
2019-06-08T14:56:54.429Z,28.97
2019-06-08T15:01:56.305Z,29.00
2019-06-08T15:06:58.665Z,29.03
2019-06-08T15:12:01.861Z,29.00
2019-06-08T15:17:03.494Z,28.94
2019-06-08T15:22:05.411Z,28.89
2019-06-08T15:27:07.868Z,28.81
2019-06-08T15:32:12.400Z,28.67
2019-06-08T15:37:15.364Z,28.58
2019-06-08T15:42:18.004Z,28.38
2019-06-08T15:47:22.178Z,28.22
2019-06-08T15:52:24.470Z,28.19
2019-06-08T15:57:29.601Z,28.32
2019-06-08T16:02:31.669Z,28.27
2019-06-08T16:07:35.622Z,28.26
2019-06-08T16:12:41.124Z,28.19
2019-06-08T16:17:44.050Z,28.15
2019-06-08T16:22:47.585Z,28.02
2019-06-08T16:27:49.981Z,27.87
2019-06-08T16:32:51.939Z,27.86
2019-06-08T16:37:54.998Z,27.70
2019-06-08T16:42:56.995Z,27.75
2019-06-08T16:48:00.083Z,27.51
2019-06-08T16:53:01.976Z,27.38
2019-06-08T16:58:04.017Z,27.34
2019-06-08T17:03:06.054Z,27.17
2019-06-08T17:08:08.215Z,27.14
2019-06-08T17:13:11.572Z,27.01
2019-06-08T17:18:13.987Z,27.04
2019-06-08T17:23:16.748Z,26.97
2019-06-08T17:28:18.679Z,26.74
2019-06-08T17:33:20.721Z,26.67
2019-06-08T17:38:22.484Z,26.66
2019-06-08T17:43:24.450Z,26.47
2019-06-08T17:48:26.384Z,26.51
2019-06-08T17:53:28.332Z,26.47
2019-06-08T17:58:33.016Z,26.31
2019-06-08T18:03:36.095Z,25.92
2019-06-08T18:08:40.942Z,25.72
2019-06-08T18:13:44.156Z,25.58
2019-06-08T18:18:48.049Z,25.62
2019-06-08T18:23:50.470Z,25.54
2019-06-08T18:28:55.070Z,25.39
2019-06-08T18:33:57.847Z,25.28
2019-06-08T18:39:00.586Z,25.05
2019-06-08T18:44:02.484Z,24.92
2019-06-08T18:49:08.070Z,24.87
2019-06-08T18:54:14.707Z,24.59
2019-06-08T18:59:14.023Z,24.38
2019-06-08T19:04:16.279Z,24.31
2019-06-08T19:09:18.252Z,24.27
2019-06-08T19:14:20.822Z,24.24
2019-06-08T19:19:22.985Z,24.18
2019-06-08T19:24:24.834Z,24.11
2019-06-08T19:29:27.942Z,23.78
2019-06-08T19:34:33.244Z,23.51
2019-06-08T19:39:36.272Z,23.29
2019-06-08T19:44:41.606Z,23.39
2019-06-08T19:49:42.833Z,23.21
2019-06-08T19:54:47.075Z,22.99
2019-06-08T19:59:49.643Z,23.06
2019-06-08T20:04:53.105Z,22.94
2019-06-08T20:09:57.122Z,23.03
2019-06-08T20:14:59.344Z,22.89
2019-06-08T20:20:04.613Z,22.98
2019-06-08T20:25:10.604Z,22.86
2019-06-08T20:30:12.491Z,22.50
2019-06-08T20:35:17.314Z,22.44
2019-06-08T20:40:18.707Z,22.39
2019-06-08T20:45:20.642Z,22.52
2019-06-08T20:50:22.491Z,22.35
2019-06-08T20:55:24.422Z,22.19
2019-06-08T21:00:26.338Z,21.87
2019-06-08T21:05:28.233Z,21.98
2019-06-08T21:10:30.109Z,21.81
2019-06-08T21:15:31.980Z,21.64
2019-06-08T21:20:33.830Z,21.84
2019-06-08T21:25:37.264Z,21.83
2019-06-08T21:30:39.451Z,21.88
2019-06-08T21:35:41.303Z,21.77
2019-06-08T21:40:43.259Z,21.70
2019-06-08T21:45:47.369Z,21.76
2019-06-08T21:50:51.366Z,21.48
2019-06-08T21:55:54.171Z,20.99
2019-06-08T22:00:59.141Z,20.95
2019-06-08T22:06:00.246Z,21.01
2019-06-08T22:11:02.684Z,21.00
2019-06-08T22:16:04.537Z,20.88
2019-06-08T22:21:08.120Z,20.83
2019-06-08T22:26:11.387Z,20.80
2019-06-08T22:31:13.244Z,20.61
2019-06-08T22:36:15.052Z,20.61
2019-06-08T22:41:17.375Z,20.61
2019-06-08T22:46:19.223Z,20.61
2019-06-08T22:51:21.078Z,20.58
2019-06-08T22:56:22.914Z,20.50
2019-06-08T23:01:24.806Z,20.49
2019-06-08T23:06:28.128Z,20.26
2019-06-08T23:11:30.152Z,20.19
2019-06-08T23:16:31.953Z,20.11
2019-06-08T23:21:33.765Z,20.11
2019-06-08T23:26:37.267Z,19.81
2019-06-08T23:31:39.306Z,19.64
2019-06-08T23:36:51.763Z,19.56
2019-06-08T23:41:44.955Z,19.57
2019-06-08T23:46:47.683Z,19.41
2019-06-08T23:51:49.623Z,19.54
2019-06-08T23:56:51.443Z,19.60
